createdAt,value
2017-10-16T00:00:18.400Z,1015.77
2017-10-16T00:01:18.463Z,1015.78
2017-10-16T00:03:11.478Z,1015.81
2017-10-16T00:04:11.521Z,1015.79
2017-10-16T00:06:04.515Z,1015.83
2017-10-16T00:07:04.580Z,1015.82
2017-10-16T00:08:57.592Z,1015.84
2017-10-16T00:09:57.635Z,1015.82
2017-10-16T00:11:50.649Z,1015.84
2017-10-16T00:12:50.692Z,1015.83
2017-10-16T00:14:43.684Z,1015.84
2017-10-16T00:15:43.746Z,1015.86
2017-10-16T00:17:36.763Z,1015.81
2017-10-16T00:18:36.803Z,1015.84
2017-10-16T00:20:29.792Z,1015.84
2017-10-16T00:21:29.853Z,1015.80
2017-10-16T00:23:22.862Z,1015.77
2017-10-16T00:24:22.906Z,1015.79
2017-10-16T00:26:15.890Z,1015.75
2017-10-16T00:27:15.952Z,1015.77
2017-10-16T00:29:08.962Z,1015.77
2017-10-16T00:30:09.001Z,1015.75
2017-10-16T00:32:02.010Z,1015.76
2017-10-16T00:33:02.052Z,1015.74
2017-10-16T00:34:55.041Z,1015.74
2017-10-16T00:35:55.102Z,1015.74
2017-10-16T00:37:48.110Z,1015.75
2017-10-16T00:38:48.153Z,1015.73
2017-10-16T00:40:41.138Z,1015.73
2017-10-16T00:41:41.199Z,1015.74
2017-10-16T00:43:34.207Z,1015.72
2017-10-16T00:44:34.247Z,1015.72
2017-10-16T00:46:27.238Z,1015.74
2017-10-16T00:47:27.296Z,1015.75
2017-10-16T00:49:20.304Z,1015.73
2017-10-16T00:50:20.343Z,1015.69
2017-10-16T00:52:13.350Z,1015.66
2017-10-16T00:53:13.391Z,1015.71
2017-10-16T00:55:06.384Z,1015.78
2017-10-16T00:56:06.448Z,1015.81
2017-10-16T00:57:59.460Z,1015.79
2017-10-16T00:58:59.502Z,1015.77
2017-10-16T01:00:52.496Z,1015.81
2017-10-16T01:01:52.558Z,1015.81
2017-10-16T01:03:45.567Z,1015.80
2017-10-16T01:04:45.607Z,1015.81
2017-10-16T01:06:38.597Z,1015.80
2017-10-16T01:07:38.655Z,1015.80
2017-10-16T01:09:31.664Z,1015.81
2017-10-16T01:10:31.704Z,1015.74
2017-10-16T01:12:24.718Z,1015.74
2017-10-16T01:13:24.755Z,1015.72
2017-10-16T01:15:17.745Z,1015.72
2017-10-16T01:16:17.802Z,1015.72
2017-10-16T01:18:10.811Z,1015.67
2017-10-16T01:19:10.852Z,1015.70
2017-10-16T01:21:03.840Z,1015.64
2017-10-16T01:22:03.900Z,1015.61
2017-10-16T01:23:56.908Z,1015.64
2017-10-16T01:24:56.944Z,1015.61
2017-10-16T01:26:49.933Z,1015.62
2017-10-16T01:27:49.994Z,1015.65
2017-10-16T01:29:43.001Z,1015.68
2017-10-16T01:30:43.042Z,1015.64
2017-10-16T01:32:36.054Z,1015.60
2017-10-16T01:33:36.095Z,1015.60
2017-10-16T01:35:29.085Z,1015.56
2017-10-16T01:36:29.142Z,1015.59
2017-10-16T01:38:22.154Z,1015.59
2017-10-16T01:39:22.196Z,1015.59
2017-10-16T01:41:15.185Z,1015.55
2017-10-16T01:42:15.244Z,1015.57
2017-10-16T01:44:08.257Z,1015.55
2017-10-16T01:45:08.297Z,1015.53
2017-10-16T01:47:01.287Z,1015.50
2017-10-16T01:48:01.346Z,1015.47
2017-10-16T01:49:54.354Z,1015.47
2017-10-16T01:50:54.394Z,1015.46
2017-10-16T01:52:47.414Z,1015.44
2017-10-16T01:53:47.443Z,1015.38
2017-10-16T01:55:40.432Z,1015.45
2017-10-16T01:56:40.493Z,1015.42
2017-10-16T01:58:33.504Z,1015.44
2017-10-16T01:59:33.546Z,1015.48
2017-10-16T02:01:26.535Z,1015.45
2017-10-16T02:02:26.594Z,1015.46
2017-10-16T02:04:19.603Z,1015.44
2017-10-16T02:05:19.643Z,1015.46
2017-10-16T02:07:12.631Z,1015.45
2017-10-16T02:08:12.722Z,1015.48
2017-10-16T02:10:05.698Z,1015.47
2017-10-16T02:11:05.738Z,1015.48
2017-10-16T02:12:58.744Z,1015.45
2017-10-16T02:13:58.784Z,1015.43
2017-10-16T02:15:51.773Z,1015.44
2017-10-16T02:16:51.834Z,1015.49
2017-10-16T02:18:44.845Z,1015.46
2017-10-16T02:19:44.887Z,1015.48
2017-10-16T02:21:37.878Z,1015.49
2017-10-16T02:22:37.935Z,1015.51
2017-10-16T02:24:30.941Z,1015.49
2017-10-16T02:25:30.981Z,1015.49
2017-10-16T02:27:23.975Z,1015.43
2017-10-16T02:28:24.033Z,1015.45
2017-10-16T02:30:17.035Z,1015.43
2017-10-16T02:31:17.074Z,1015.44
2017-10-16T02:33:10.083Z,1015.40
2017-10-16T02:34:10.122Z,1015.40
2017-10-16T02:36:03.115Z,1015.36
2017-10-16T02:37:03.177Z,1015.38
2017-10-16T02:38:56.184Z,1015.34
2017-10-16T02:39:56.222Z,1015.36
2017-10-16T02:41:49.212Z,1015.33
2017-10-16T02:42:49.268Z,1015.37
2017-10-16T02:44:42.276Z,1015.36
2017-10-16T02:45:42.316Z,1015.35
2017-10-16T02:47:35.309Z,1015.32
2017-10-16T02:48:35.365Z,1015.35
2017-10-16T02:50:28.371Z,1015.36
2017-10-16T02:51:28.412Z,1015.38
2017-10-16T02:53:21.421Z,1015.36
2017-10-16T02:54:21.461Z,1015.40
2017-10-16T02:56:14.448Z,1015.42
2017-10-16T02:57:14.509Z,1015.42
2017-10-16T02:59:07.514Z,1015.42
2017-10-16T03:00:07.555Z,1015.40
2017-10-16T03:02:00.544Z,1015.44
2017-10-16T03:03:00.603Z,1015.42
2017-10-16T03:04:53.611Z,1015.44
2017-10-16T03:05:53.650Z,1015.45
2017-10-16T03:07:46.642Z,1015.47
2017-10-16T03:08:46.697Z,1015.48
2017-10-16T03:10:39.705Z,1015.45
2017-10-16T03:11:39.743Z,1015.49
2017-10-16T03:13:32.749Z,1015.52
2017-10-16T03:14:32.790Z,1015.52
2017-10-16T03:16:25.779Z,1015.53
2017-10-16T03:17:25.837Z,1015.57
2017-10-16T03:19:18.846Z,1015.55
2017-10-16T03:20:18.891Z,1015.57
2017-10-16T03:22:11.875Z,1015.50
2017-10-16T03:23:11.932Z,1015.47
2017-10-16T03:25:04.940Z,1015.47
2017-10-16T03:26:04.980Z,1015.47
2017-10-16T03:27:57.968Z,1015.41
2017-10-16T03:28:58.026Z,1015.41
2017-10-16T03:30:51.033Z,1015.43
2017-10-16T03:31:51.072Z,1015.39
2017-10-16T03:33:44.077Z,1015.42
2017-10-16T03:34:44.117Z,1015.44
2017-10-16T03:36:37.102Z,1015.44
2017-10-16T03:37:37.164Z,1015.44
2017-10-16T03:39:30.170Z,1015.45
2017-10-16T03:40:30.210Z,1015.46
2017-10-16T03:42:23.198Z,1015.49
2017-10-16T03:43:23.255Z,1015.50
2017-10-16T03:45:16.268Z,1015.56
2017-10-16T03:46:16.309Z,1015.54
2017-10-16T03:48:09.318Z,1015.49
2017-10-16T03:49:09.368Z,1015.46
2017-10-16T03:51:14.009Z,1015.49
2017-10-16T03:52:14.060Z,1015.48
2017-10-16T03:54:07.057Z,1015.48
2017-10-16T03:55:07.099Z,1015.46
2017-10-16T03:57:00.111Z,1015.49
2017-10-16T03:58:00.173Z,1015.49
2017-10-16T03:59:53.181Z,1015.49
2017-10-16T04:00:53.221Z,1015.47
2017-10-16T04:02:46.209Z,1015.51
2017-10-16T04:03:46.268Z,1015.48
2017-10-16T04:05:39.278Z,1015.50
2017-10-16T04:06:39.316Z,1015.52
2017-10-16T04:08:32.303Z,1015.50
2017-10-16T04:09:32.360Z,1015.51
2017-10-16T04:11:25.368Z,1015.54
2017-10-16T04:12:25.406Z,1015.52
2017-10-16T04:14:18.413Z,1015.51
2017-10-16T04:15:18.452Z,1015.54
2017-10-16T04:17:11.441Z,1015.48
2017-10-16T04:18:11.502Z,1015.51
2017-10-16T04:20:04.507Z,1015.46
2017-10-16T04:21:04.548Z,1015.45
2017-10-16T04:22:57.536Z,1015.46
2017-10-16T04:23:57.592Z,1015.45
2017-10-16T04:25:50.601Z,1015.46
2017-10-16T04:26:50.643Z,1015.45
2017-10-16T04:28:43.628Z,1015.45
2017-10-16T04:29:43.685Z,1015.49
2017-10-16T04:31:36.693Z,1015.50
2017-10-16T04:32:36.730Z,1015.44
2017-10-16T04:34:29.740Z,1015.43
2017-10-16T04:35:29.778Z,1015.40
2017-10-16T04:37:22.767Z,1015.39
2017-10-16T04:38:22.825Z,1015.40
2017-10-16T04:40:15.829Z,1015.38
2017-10-16T04:41:15.870Z,1015.36
2017-10-16T04:43:08.869Z,1015.35
2017-10-16T04:44:08.929Z,1015.36
2017-10-16T04:46:01.942Z,1015.32
2017-10-16T04:47:01.984Z,1015.33
2017-10-16T04:48:54.976Z,1015.31
2017-10-16T04:49:55.042Z,1015.28
2017-10-16T04:51:48.548Z,1015.29
2017-10-16T04:52:48.588Z,1015.29
2017-10-16T04:54:41.603Z,1015.30
2017-10-16T04:55:41.638Z,1015.25
2017-10-16T04:57:34.633Z,1015.24
2017-10-16T04:58:34.696Z,1015.20
2017-10-16T05:00:27.718Z,1015.21
2017-10-16T05:01:27.759Z,1015.21
2017-10-16T05:03:20.787Z,1015.21
2017-10-16T05:04:20.849Z,1015.20
2017-10-16T05:06:13.856Z,1015.20
2017-10-16T05:07:13.896Z,1015.22
2017-10-16T05:09:18.539Z,1015.17
2017-10-16T05:10:18.597Z,1015.15
2017-10-16T05:12:11.683Z,1015.10
2017-10-16T05:13:11.710Z,1015.12
2017-10-16T05:15:19.190Z,1015.15
2017-10-16T05:16:27.490Z,1015.14
2017-10-16T05:18:51.477Z,1015.13
2017-10-16T05:19:51.542Z,1015.12
2017-10-16T05:21:44.543Z,1015.08
2017-10-16T05:22:44.584Z,1015.04
2017-10-16T05:24:37.576Z,1015.00
2017-10-16T05:25:37.632Z,1015.01
2017-10-16T05:27:30.839Z,1014.98
2017-10-16T05:28:30.880Z,1014.94
2017-10-16T05:30:24.920Z,1014.92
2017-10-16T05:31:24.959Z,1014.91
2017-10-16T05:33:17.952Z,1014.87
2017-10-16T05:34:18.015Z,1014.89
2017-10-16T05:36:11.032Z,1014.93
2017-10-16T05:37:11.073Z,1014.89
2017-10-16T05:39:04.056Z,1014.93
2017-10-16T05:40:04.117Z,1014.91
2017-10-16T05:41:57.139Z,1014.96
2017-10-16T05:42:57.178Z,1014.97
2017-10-16T05:44:50.169Z,1014.94
2017-10-16T05:45:50.228Z,1014.91
2017-10-16T05:47:43.244Z,1014.93
2017-10-16T05:48:43.285Z,1014.90
2017-10-16T05:50:36.347Z,1014.91
2017-10-16T05:51:36.388Z,1014.95
2017-10-16T05:53:29.410Z,1014.98
2017-10-16T05:54:29.471Z,1014.94
2017-10-16T05:56:22.480Z,1014.92
2017-10-16T05:57:22.522Z,1014.90
2017-10-16T05:59:15.523Z,1014.90
2017-10-16T06:00:15.582Z,1014.96
2017-10-16T06:02:08.592Z,1014.96
2017-10-16T06:03:08.631Z,1014.94
2017-10-16T06:05:01.642Z,1015.02
2017-10-16T06:06:01.698Z,1015.00
2017-10-16T06:07:54.722Z,1015.01
2017-10-16T06:08:54.763Z,1015.01
2017-10-16T06:10:47.773Z,1015.03
2017-10-16T06:11:47.814Z,1015.01
2017-10-16T06:13:40.804Z,1015.00
2017-10-16T06:14:40.865Z,1015.03
2017-10-16T06:16:33.931Z,1014.97
2017-10-16T06:17:33.913Z,1014.92
2017-10-16T06:19:26.960Z,1014.93
2017-10-16T06:20:27.018Z,1014.94
2017-10-16T06:22:20.027Z,1014.96
2017-10-16T06:23:20.067Z,1014.99
2017-10-16T06:25:13.055Z,1015.04
2017-10-16T06:26:13.116Z,1015.03
2017-10-16T06:28:06.121Z,1015.05
2017-10-16T06:29:06.161Z,1015.08
2017-10-16T06:30:59.167Z,1015.15
2017-10-16T06:31:59.207Z,1015.14
2017-10-16T06:33:52.196Z,1015.15
2017-10-16T06:34:52.253Z,1015.12
2017-10-16T06:36:45.263Z,1015.12
2017-10-16T06:37:45.303Z,1015.14
2017-10-16T06:39:38.490Z,1015.15
2017-10-16T06:40:38.554Z,1015.14
2017-10-16T06:42:31.573Z,1015.08
2017-10-16T06:43:31.605Z,1015.08
2017-10-16T06:45:24.597Z,1015.04
2017-10-16T06:46:24.659Z,1015.03
2017-10-16T06:48:17.664Z,1015.05
2017-10-16T06:49:17.708Z,1015.00
2017-10-16T06:51:10.725Z,1015.00
2017-10-16T06:52:10.759Z,1014.98
2017-10-16T06:54:03.765Z,1015.02
2017-10-16T06:55:03.827Z,1015.00
2017-10-16T06:57:08.468Z,1014.95
2017-10-16T06:58:08.524Z,1014.98
2017-10-16T07:00:13.166Z,1015.00
2017-10-16T07:01:13.223Z,1015.03
2017-10-16T07:03:06.245Z,1015.06
2017-10-16T07:04:06.283Z,1015.04
2017-10-16T07:05:59.298Z,1015.08
2017-10-16T07:06:59.339Z,1015.08
2017-10-16T07:08:52.333Z,1015.07
2017-10-16T07:09:52.391Z,1015.08
2017-10-16T07:11:45.403Z,1015.05
2017-10-16T07:12:45.444Z,1015.15
2017-10-16T07:14:38.448Z,1015.14
2017-10-16T07:15:38.512Z,1015.21
2017-10-16T07:17:31.524Z,1015.27
2017-10-16T07:18:31.564Z,1015.30
2017-10-16T07:20:24.561Z,1015.35
2017-10-16T07:21:24.625Z,1015.37
2017-10-16T07:23:17.638Z,1015.42
2017-10-16T07:24:17.682Z,1015.39
2017-10-16T07:26:10.703Z,1015.55
2017-10-16T07:27:10.745Z,1015.50
2017-10-16T07:29:03.748Z,1015.51
2017-10-16T07:30:03.811Z,1015.60
2017-10-16T07:31:56.828Z,1015.79
2017-10-16T07:32:56.872Z,1015.91
2017-10-16T07:34:49.869Z,1016.01
2017-10-16T07:35:49.933Z,1016.05
2017-10-16T07:37:42.948Z,1016.07
2017-10-16T07:38:42.993Z,1016.06
2017-10-16T07:40:35.988Z,1016.12
2017-10-16T07:41:36.052Z,1016.15
2017-10-16T07:43:29.068Z,1016.09
2017-10-16T07:44:29.109Z,1016.08
2017-10-16T07:46:22.127Z,1016.14
2017-10-16T07:47:22.170Z,1016.20
2017-10-16T07:49:15.165Z,1016.17
2017-10-16T07:50:15.229Z,1016.25
2017-10-16T07:52:08.250Z,1016.19
2017-10-16T07:53:08.295Z,1016.21
2017-10-16T07:55:01.291Z,1016.22
2017-10-16T07:56:01.355Z,1016.21
2017-10-16T07:57:54.397Z,1016.23
2017-10-16T07:58:54.422Z,1016.27
2017-10-16T08:00:47.923Z,1016.28
2017-10-16T08:01:47.989Z,1016.29
2017-10-16T08:03:41.005Z,1016.29
2017-10-16T08:04:41.048Z,1016.31
2017-10-16T08:06:34.063Z,1016.32
2017-10-16T08:07:34.108Z,1016.36
2017-10-16T08:09:27.117Z,1016.40
2017-10-16T08:10:27.183Z,1016.41
2017-10-16T08:12:20.204Z,1016.46
2017-10-16T08:13:20.250Z,1016.42
2017-10-16T08:15:13.278Z,1016.40
2017-10-16T08:16:13.344Z,1016.37
2017-10-16T08:18:06.370Z,1016.35
2017-10-16T08:19:06.418Z,1016.36
2017-10-16T08:20:59.419Z,1016.39
2017-10-16T08:21:59.487Z,1016.43
2017-10-16T08:23:52.505Z,1016.40
2017-10-16T08:24:52.551Z,1016.40
2017-10-16T08:26:45.578Z,1016.39
2017-10-16T08:27:45.623Z,1016.37
2017-10-16T08:29:39.962Z,1016.35
2017-10-16T08:30:40.029Z,1016.34
2017-10-16T08:32:33.070Z,1016.35
2017-10-16T08:33:33.117Z,1016.36
2017-10-16T08:35:26.133Z,1016.40
2017-10-16T08:36:26.183Z,1016.39
2017-10-16T08:38:19.202Z,1016.40
2017-10-16T08:39:19.247Z,1016.48
2017-10-16T08:41:12.250Z,1016.50
2017-10-16T08:42:12.317Z,1016.52
2017-10-16T08:44:05.343Z,1016.52
2017-10-16T08:45:05.388Z,1016.57
2017-10-16T08:46:58.406Z,1016.54
2017-10-16T08:47:58.466Z,1016.57
2017-10-16T08:49:51.643Z,1016.58
2017-10-16T08:50:51.713Z,1016.58
2017-10-16T08:52:44.732Z,1016.52
2017-10-16T08:53:44.777Z,1016.55
2017-10-16T08:55:37.787Z,1016.53
2017-10-16T08:56:37.855Z,1016.49
2017-10-16T08:58:42.522Z,1016.55
2017-10-16T08:59:42.559Z,1016.53
2017-10-16T09:01:35.628Z,1016.53
2017-10-16T09:02:35.696Z,1016.52
2017-10-16T09:04:28.726Z,1016.51
2017-10-16T09:05:28.769Z,1016.50
2017-10-16T09:07:33.478Z,1016.44
2017-10-16T09:08:33.510Z,1016.51
2017-10-16T09:10:26.509Z,1016.50
2017-10-16T09:11:26.577Z,1016.53
2017-10-16T09:13:19.602Z,1016.48
2017-10-16T09:14:19.647Z,1016.47
2017-10-16T09:16:12.659Z,1016.44
2017-10-16T09:17:12.726Z,1016.42
2017-10-16T09:19:17.409Z,1016.44
2017-10-16T09:20:17.452Z,1016.45
2017-10-16T09:22:10.478Z,1016.43
2017-10-16T09:23:10.525Z,1016.45
2017-10-16T09:25:15.159Z,1016.41
2017-10-16T09:26:15.222Z,1016.40
2017-10-16T09:28:08.247Z,1016.40
2017-10-16T09:29:08.294Z,1016.41
2017-10-16T09:31:01.312Z,1016.51
2017-10-16T09:32:01.380Z,1016.53
2017-10-16T09:33:54.404Z,1016.49
2017-10-16T09:34:54.450Z,1016.47
2017-10-16T09:36:47.491Z,1016.45
2017-10-16T09:37:47.555Z,1016.45
2017-10-16T09:39:40.608Z,1016.48
2017-10-16T09:40:40.625Z,1016.44
2017-10-16T09:42:33.643Z,1016.48
2017-10-16T09:43:33.688Z,1016.47
2017-10-16T09:45:26.685Z,1016.47
2017-10-16T09:46:26.750Z,1016.49
2017-10-16T09:48:19.800Z,1016.46
2017-10-16T09:49:19.846Z,1016.44
2017-10-16T09:51:12.843Z,1016.42
2017-10-16T09:52:12.910Z,1016.41
2017-10-16T09:54:05.933Z,1016.42
2017-10-16T09:55:05.976Z,1016.41
2017-10-16T09:56:58.977Z,1016.44
2017-10-16T09:57:59.044Z,1016.42
2017-10-16T09:59:53.073Z,1016.43
2017-10-16T10:00:53.116Z,1016.44
2017-10-16T10:02:46.158Z,1016.40
2017-10-16T10:03:46.202Z,1016.43
2017-10-16T10:05:40.236Z,1016.40
2017-10-16T10:06:40.276Z,1016.34
2017-10-16T10:08:33.301Z,1016.36
2017-10-16T10:09:33.351Z,1016.36
2017-10-16T10:11:26.350Z,1016.34
2017-10-16T10:12:26.418Z,1016.31
2017-10-16T10:14:19.442Z,1016.31
2017-10-16T10:15:19.488Z,1016.29
2017-10-16T10:17:12.490Z,1016.29
2017-10-16T10:18:12.561Z,1016.27
2017-10-16T10:20:05.603Z,1016.29
2017-10-16T10:21:05.632Z,1016.31
2017-10-16T10:22:58.660Z,1016.30
2017-10-16T10:23:58.704Z,1016.28
2017-10-16T10:25:51.769Z,1016.28
2017-10-16T10:26:51.832Z,1016.28
2017-10-16T10:28:44.866Z,1016.27
2017-10-16T10:29:44.909Z,1016.26
2017-10-16T10:31:49.277Z,1016.27
2017-10-16T10:32:49.339Z,1016.29
2017-10-16T10:34:42.400Z,1016.28
2017-10-16T10:35:42.441Z,1016.29
2017-10-16T10:37:35.462Z,1016.27
2017-10-16T10:38:35.534Z,1016.25
2017-10-16T10:40:28.585Z,1016.31
2017-10-16T10:41:28.628Z,1016.26
2017-10-16T10:43:21.682Z,1016.23
2017-10-16T10:44:21.692Z,1016.24
2017-10-16T10:46:14.693Z,1016.22
2017-10-16T10:47:14.761Z,1016.22
2017-10-16T10:49:07.781Z,1016.17
2017-10-16T10:50:07.824Z,1016.18
2017-10-16T10:52:00.843Z,1016.20
2017-10-16T10:53:00.910Z,1016.18
2017-10-16T10:54:53.941Z,1016.21
2017-10-16T10:55:53.988Z,1016.21
2017-10-16T10:57:46.992Z,1016.19
2017-10-16T10:58:47.060Z,1016.19
2017-10-16T11:00:51.903Z,1016.22
2017-10-16T11:01:51.946Z,1016.23
2017-10-16T11:03:47.048Z,1016.18
2017-10-16T11:04:47.100Z,1016.21
2017-10-16T11:06:53.636Z,1016.24
2017-10-16T11:07:53.693Z,1016.25
2017-10-16T11:09:46.949Z,1016.26
2017-10-16T11:10:46.996Z,1016.21
2017-10-16T11:12:40.006Z,1016.23
2017-10-16T11:13:40.073Z,1016.24
2017-10-16T11:15:44.353Z,1016.24
2017-10-16T11:16:44.396Z,1016.25
2017-10-16T11:18:37.447Z,1016.22
2017-10-16T11:19:37.486Z,1016.22
2017-10-16T11:21:30.490Z,1016.19
2017-10-16T11:22:30.556Z,1016.20
2017-10-16T11:24:23.589Z,1016.18
2017-10-16T11:25:23.631Z,1016.19
2017-10-16T11:27:16.634Z,1016.18
2017-10-16T11:28:16.698Z,1016.20
2017-10-16T11:30:21.468Z,1016.18
2017-10-16T11:31:09.781Z,1016.15
2017-10-16T11:33:02.889Z,1016.15
2017-10-16T11:34:02.956Z,1016.19
2017-10-16T11:35:56.071Z,1016.15
2017-10-16T11:36:56.118Z,1016.14
2017-10-16T11:38:49.169Z,1016.07
2017-10-16T11:39:49.215Z,1016.08
2017-10-16T11:41:42.218Z,1016.06
2017-10-16T11:42:42.287Z,1016.06
2017-10-16T11:44:35.321Z,1016.08
2017-10-16T11:45:35.369Z,1016.06
2017-10-16T11:47:29.893Z,1016.03
2017-10-16T11:48:29.916Z,1015.98
2017-10-16T11:50:33.712Z,1015.99
2017-10-16T11:51:26.136Z,1016.01
2017-10-16T11:53:19.173Z,1015.99
2017-10-16T11:54:19.235Z,1015.97
2017-10-16T11:56:12.257Z,1015.93
2017-10-16T11:57:12.303Z,1015.91
2017-10-16T11:59:05.326Z,1015.84
2017-10-16T12:02:14.527Z,1015.81
2017-10-16T12:03:14.596Z,1015.83
2017-10-16T12:09:58.733Z,1015.79
2017-10-16T12:10:58.426Z,1015.81
2017-10-16T12:12:51.426Z,1015.76
2017-10-16T12:13:51.563Z,1015.73
2017-10-16T12:15:44.515Z,1015.74
2017-10-16T12:16:44.561Z,1015.72
2017-10-16T12:18:37.561Z,1015.71
2017-10-16T12:19:37.628Z,1015.71
2017-10-16T12:21:30.649Z,1015.72
2017-10-16T12:22:30.695Z,1015.69
2017-10-16T12:24:23.717Z,1015.70
2017-10-16T12:25:23.763Z,1015.72
2017-10-16T12:27:16.763Z,1015.68
2017-10-16T12:28:16.846Z,1015.73
2017-10-16T12:30:09.849Z,1015.70
2017-10-16T12:31:09.896Z,1015.71
2017-10-16T12:33:02.896Z,1015.69
2017-10-16T12:34:02.963Z,1015.73
2017-10-16T12:35:55.984Z,1015.74
2017-10-16T12:36:56.035Z,1015.69
2017-10-16T12:38:49.064Z,1015.71
2017-10-16T12:39:49.105Z,1015.68
2017-10-16T12:41:42.127Z,1015.67
2017-10-16T12:42:42.173Z,1015.63
2017-10-16T12:44:35.199Z,1015.63
2017-10-16T12:45:35.247Z,1015.65
2017-10-16T12:47:28.249Z,1015.61
2017-10-16T12:48:28.316Z,1015.64
2017-10-16T12:50:21.347Z,1015.63
2017-10-16T12:51:21.393Z,1015.63
2017-10-16T12:53:14.393Z,1015.63
2017-10-16T12:54:14.461Z,1015.61
2017-10-16T12:56:07.483Z,1015.58
2017-10-16T12:57:07.548Z,1015.59
2017-10-16T12:59:00.530Z,1015.53
2017-10-16T13:00:00.599Z,1015.54
2017-10-16T13:01:53.623Z,1015.51
2017-10-16T13:02:53.672Z,1015.50
2017-10-16T13:04:46.699Z,1015.45
2017-10-16T13:05:46.742Z,1015.49
2017-10-16T13:07:39.745Z,1015.45
2017-10-16T13:08:39.812Z,1015.45
2017-10-16T13:10:33.341Z,1015.40
2017-10-16T13:11:33.387Z,1015.47
2017-10-16T13:13:26.393Z,1015.44
2017-10-16T13:14:26.463Z,1015.42
2017-10-16T13:16:19.488Z,1015.45
2017-10-16T13:17:19.533Z,1015.44
2017-10-16T13:19:12.533Z,1015.42
2017-10-16T13:20:12.600Z,1015.46
2017-10-16T13:22:05.621Z,1015.46
2017-10-16T13:23:05.670Z,1015.47
2017-10-16T13:24:58.693Z,1015.46
2017-10-16T13:25:58.739Z,1015.44
2017-10-16T13:27:51.739Z,1015.42
2017-10-16T13:28:51.808Z,1015.42
2017-10-16T13:30:45.863Z,1015.39
2017-10-16T13:31:45.882Z,1015.39
2017-10-16T13:33:38.885Z,1015.37
2017-10-16T13:34:38.952Z,1015.38
2017-10-16T13:36:31.980Z,1015.42
2017-10-16T13:37:32.033Z,1015.40
2017-10-16T13:39:25.039Z,1015.40
2017-10-16T13:40:25.097Z,1015.37
2017-10-16T13:42:18.117Z,1015.33
2017-10-16T13:43:18.165Z,1015.34
2017-10-16T13:45:11.188Z,1015.31
2017-10-16T13:46:11.243Z,1015.30
2017-10-16T13:48:15.497Z,1015.30
2017-10-16T13:49:15.551Z,1015.27
2017-10-16T13:51:08.554Z,1015.26
2017-10-16T13:52:08.601Z,1015.28
2017-10-16T13:54:01.604Z,1015.29
2017-10-16T13:55:01.672Z,1015.28
2017-10-16T13:56:54.701Z,1015.25
2017-10-16T13:57:54.740Z,1015.27
2017-10-16T13:59:47.764Z,1015.25
2017-10-16T14:00:47.810Z,1015.26
2017-10-16T14:02:40.816Z,1015.22
2017-10-16T14:03:40.885Z,1015.22
2017-10-16T14:05:33.913Z,1015.19
2017-10-16T14:06:33.962Z,1015.16
2017-10-16T14:08:26.962Z,1015.14
2017-10-16T14:09:27.030Z,1015.17
2017-10-16T14:11:20.054Z,1015.14
2017-10-16T14:12:20.099Z,1015.17
2017-10-16T14:14:13.106Z,1015.14
2017-10-16T14:15:13.169Z,1015.11
2017-10-16T14:17:06.189Z,1015.08
2017-10-16T14:18:06.238Z,1015.06
2017-10-16T14:19:59.263Z,1015.09
2017-10-16T14:20:59.310Z,1015.05
2017-10-16T14:22:52.313Z,1015.06
2017-10-16T14:23:52.384Z,1015.10
2017-10-16T14:25:45.412Z,1015.10
2017-10-16T14:26:45.463Z,1015.09
2017-10-16T14:28:38.462Z,1015.09
2017-10-16T14:29:38.531Z,1015.11
2017-10-16T14:31:31.558Z,1015.08
2017-10-16T14:32:31.606Z,1015.09
2017-10-16T14:34:24.610Z,1015.07
2017-10-16T14:35:24.675Z,1015.08
2017-10-16T14:37:17.701Z,1015.03
2017-10-16T14:38:17.754Z,1015.03
2017-10-16T14:40:10.799Z,1015.01
2017-10-16T14:41:10.809Z,1014.96
2017-10-16T14:43:03.807Z,1014.95
2017-10-16T14:44:03.876Z,1014.90
2017-10-16T14:45:56.911Z,1014.92
2017-10-16T14:46:56.959Z,1014.93
2017-10-16T14:48:49.981Z,1014.86
2017-10-16T14:49:50.038Z,1014.85
2017-10-16T14:51:43.061Z,1014.89
2017-10-16T14:52:43.106Z,1014.89
2017-10-16T14:54:36.103Z,1014.85
2017-10-16T14:55:36.170Z,1014.85
2017-10-16T14:57:29.189Z,1014.86
2017-10-16T14:58:29.235Z,1014.83
2017-10-16T15:00:22.263Z,1014.82
2017-10-16T15:01:22.305Z,1014.81
2017-10-16T15:03:15.303Z,1014.83
2017-10-16T15:04:15.372Z,1014.84
2017-10-16T15:06:08.397Z,1014.81
2017-10-16T15:07:08.446Z,1014.83
2017-10-16T15:09:01.455Z,1014.76
2017-10-16T15:10:01.524Z,1014.75
2017-10-16T15:11:54.549Z,1014.76
2017-10-16T15:12:54.597Z,1014.72
2017-10-16T15:14:47.604Z,1014.72
2017-10-16T15:15:47.665Z,1014.69
2017-10-16T15:17:40.720Z,1014.67
2017-10-16T15:18:40.775Z,1014.63
2017-10-16T15:20:33.766Z,1014.61
2017-10-16T15:21:33.816Z,1014.61
2017-10-16T15:23:26.814Z,1014.60
2017-10-16T15:24:26.882Z,1014.63
2017-10-16T15:26:19.903Z,1014.59
2017-10-16T15:27:19.951Z,1014.60
2017-10-16T15:29:12.951Z,1014.57
2017-10-16T15:30:13.021Z,1014.57
2017-10-16T15:32:06.047Z,1014.60
2017-10-16T15:33:06.096Z,1014.56
2017-10-16T15:34:59.095Z,1014.61
2017-10-16T15:35:59.169Z,1014.64
2017-10-16T15:37:52.184Z,1014.60
2017-10-16T15:38:52.231Z,1014.61
2017-10-16T15:40:45.253Z,1014.59
2017-10-16T15:41:45.297Z,1014.57
2017-10-16T15:43:38.305Z,1014.55
2017-10-16T15:44:38.375Z,1014.54
2017-10-16T15:46:31.400Z,1014.50
2017-10-16T15:47:31.448Z,1014.50
2017-10-16T15:49:24.446Z,1014.47
2017-10-16T15:50:24.515Z,1014.50
2017-10-16T15:52:17.535Z,1014.51
2017-10-16T15:53:17.581Z,1014.51
2017-10-16T15:55:10.589Z,1014.50
2017-10-16T15:56:10.658Z,1014.48
2017-10-16T15:58:03.677Z,1014.47
2017-10-16T15:59:03.723Z,1014.45
2017-10-16T16:00:56.750Z,1014.43
2017-10-16T16:01:56.791Z,1014.42
2017-10-16T16:03:49.796Z,1014.41
2017-10-16T16:04:49.857Z,1014.38
2017-10-16T16:06:42.874Z,1014.38
2017-10-16T16:07:42.923Z,1014.38
2017-10-16T16:09:35.937Z,1014.38
2017-10-16T16:10:35.989Z,1014.44
2017-10-16T16:12:29.012Z,1014.44
2017-10-16T16:13:29.057Z,1014.46
2017-10-16T16:15:22.061Z,1014.51
2017-10-16T16:16:22.128Z,1014.54
2017-10-16T16:18:15.154Z,1014.54
2017-10-16T16:19:15.194Z,1014.51
2017-10-16T16:21:08.219Z,1014.56
2017-10-16T16:22:08.279Z,1014.58
2017-10-16T16:24:01.267Z,1014.63
2017-10-16T16:25:01.335Z,1014.66
2017-10-16T16:26:54.369Z,1014.65
2017-10-16T16:27:54.400Z,1014.64
2017-10-16T16:29:47.398Z,1014.64
2017-10-16T16:30:47.464Z,1014.66
2017-10-16T16:32:40.486Z,1014.60
2017-10-16T16:33:40.531Z,1014.58
2017-10-16T16:35:33.529Z,1014.57
2017-10-16T16:36:33.597Z,1014.62
2017-10-16T16:38:26.616Z,1014.60
2017-10-16T16:39:26.663Z,1014.63
2017-10-16T16:41:19.694Z,1014.62
2017-10-16T16:42:19.727Z,1014.60
2017-10-16T16:44:12.723Z,1014.57
2017-10-16T16:45:12.789Z,1014.57
2017-10-16T16:47:05.845Z,1014.52
2017-10-16T16:48:05.854Z,1014.53
2017-10-16T16:49:58.850Z,1014.47
2017-10-16T16:50:58.918Z,1014.47
2017-10-16T16:52:51.937Z,1014.51
2017-10-16T16:53:51.984Z,1014.49
2017-10-16T16:55:44.982Z,1014.58
2017-10-16T16:56:45.049Z,1014.62
2017-10-16T16:58:38.081Z,1014.64
2017-10-16T16:59:38.128Z,1014.69
2017-10-16T17:01:31.145Z,1014.78
2017-10-16T17:02:31.192Z,1014.78
2017-10-16T17:04:24.186Z,1014.80
2017-10-16T17:05:24.253Z,1014.83
2017-10-16T17:07:17.272Z,1014.82
2017-10-16T17:08:17.323Z,1014.83
2017-10-16T17:10:10.313Z,1014.82
2017-10-16T17:11:10.380Z,1014.81
2017-10-16T17:13:03.399Z,1014.79
2017-10-16T17:14:03.444Z,1014.79
2017-10-16T17:15:56.444Z,1014.76
2017-10-16T17:16:56.526Z,1014.75
2017-10-16T17:18:49.542Z,1014.78
2017-10-16T17:19:49.585Z,1014.79
2017-10-16T17:21:42.608Z,1014.73
2017-10-16T17:22:42.653Z,1014.75
2017-10-16T17:24:35.650Z,1014.69
2017-10-16T17:25:35.718Z,1014.66
2017-10-16T17:27:28.734Z,1014.68
2017-10-16T17:28:28.794Z,1014.67
2017-10-16T17:30:21.786Z,1014.65
2017-10-16T17:31:21.852Z,1014.62
2017-10-16T17:33:14.868Z,1014.59
2017-10-16T17:34:14.913Z,1014.58
2017-10-16T17:36:07.909Z,1014.55